Time;durP1;ratioP1;P1;durP2;ratioP2;P2;SDS_P1;SDS_P2;PMS_P1;PMS_P2;Temp;Humidity;BMP_temperature;BMP_pressure;BME280_temperature;BME280_humidity;BME280_pressure;Samples;Min_cycle;Max_cycle;Signal;HPM_P1;HPM_P2
2022/12/28 00:02:10;;;;;;;9.32;5.50;;;16.30;48.80;;;;;;5054147;28;20210;-81
2022/12/28 00:04:37;;;;;;;8.65;5.60;;;16.30;48.90;;;;;;5037913;28;20241;-81
2022/12/28 00:07:04;;;;;;;7.43;5.70;;;16.30;48.80;;;;;;5054207;28;20281;-81
2022/12/28 00:09:31;;;;;;;9.13;5.57;;;16.20;48.80;;;;;;5054483;28;20245;-81
2022/12/28 00:11:59;;;;;;;8.70;5.57;;;16.20;48.90;;;;;;5056869;28;20210;-81
2022/12/28 00:14:26;;;;;;;8.02;5.78;;;16.20;49.00;;;;;;5057751;28;20226;-81
2022/12/28 00:16:53;;;;;;;9.02;5.82;;;16.20;48.90;;;;;;5057309;28;20219;-81
2022/12/28 00:19:20;;;;;;;8.40;6.22;;;16.20;48.80;;;;;;5057944;28;20249;-81
2022/12/28 00:21:48;;;;;;;7.78;5.35;;;16.10;49.50;;;;;;5057345;28;20200;-81
2022/12/28 00:24:18;;;;;;;9.13;5.43;;;16.10;48.80;;;;;;5057438;28;20646;-81
2022/12/28 00:26:46;;;;;;;7.85;5.70;;;16.10;48.90;;;;;;5057972;28;20648;-81
2022/12/28 00:29:14;;;;;;;7.82;4.93;;;16.10;48.90;;;;;;5057502;28;20568;-81
2022/12/28 00:31:41;;;;;;;7.32;5.80;;;16.10;48.90;;;;;;5066907;28;20243;-80
2022/12/28 00:34:08;;;;;;;7.47;5.35;;;16.10;48.90;;;;;;5059465;28;20223;-80
2022/12/28 00:36:35;;;;;;;8.52;5.32;;;16.10;48.90;;;;;;5059136;28;20231;-80
2022/12/28 00:39:02;;;;;;;8.20;5.45;;;16.10;48.90;;;;;;5056891;28;20294;-80
2022/12/28 00:41:29;;;;;;;8.77;5.32;;;16.10;49.00;;;;;;5057541;28;20199;-80
2022/12/28 00:43:56;;;;;;;7.18;5.35;;;16.00;48.90;;;;;;5058318;28;20275;-80
2022/12/28 00:46:27;;;;;;;7.95;5.25;;;16.00;48.80;;;;;;5057821;28;20226;-80
2022/12/28 00:48:54;;;;;;;6.80;5.20;;;16.00;49.00;;;;;;5057154;28;20295;-80
2022/12/28 00:51:21;;;;;;;6.30;4.57;;;16.00;48.90;;;;;;5057139;28;20604;-80
2022/12/28 00:53:50;;;;;;;6.72;4.88;;;16.00;49.10;;;;;;5057899;28;20207;-80
2022/12/28 00:56:18;;;;;;;6.40;5.30;;;16.00;49.00;;;;;;5057201;28;20211;-80
2022/12/28 00:58:45;;;;;;;7.72;4.80;;;16.00;49.00;;;;;;5056901;28;20199;-80
2022/12/28 01:01:14;;;;;;;6.75;4.82;;;16.00;49.00;;;;;;5056994;28;20201;-80
2022/12/28 01:03:42;;;;;;;7.10;4.82;;;15.90;49.00;;;;;;5056781;28;20646;-80
2022/12/28 01:06:15;;;;;;;7.60;4.93;;;16.00;49.20;;;;;;5057209;28;20541;-80
2022/12/28 01:08:42;;;;;;;6.15;4.65;;;15.90;49.00;;;;;;5057679;28;20227;-81
2022/12/28 01:11:12;;;;;;;6.70;4.82;;;15.90;49.10;;;;;;5058393;28;20199;-81
2022/12/28 01:13:39;;;;;;;5.65;4.65;;;15.90;49.10;;;;;;5056727;28;20223;-81
2022/12/28 01:16:13;;;;;;;5.03;4.20;;;15.90;49.10;;;;;;5056654;28;20221;-81
2022/12/28 01:18:42;;;;;;;6.45;4.68;;;15.90;49.00;;;;;;5056413;28;20285;-81
2022/12/28 01:21:10;;;;;;;6.40;4.80;;;15.90;49.10;;;;;;5056151;28;20210;-81
2022/12/28 01:23:37;;;;;;;5.97;4.45;;;15.90;49.20;;;;;;5056208;28;20202;-81
2022/12/28 01:26:06;;;;;;;7.07;4.63;;;15.80;49.20;;;;;;5055963;28;20242;-81
2022/12/28 01:28:33;;;;;;;6.80;4.63;;;15.90;49.10;;;;;;5056285;28;20191;-81
2022/12/28 01:31:04;;;;;;;6.30;4.60;;;15.90;49.10;;;;;;5056192;28;20709;-81
2022/12/28 01:33:31;;;;;;;5.60;4.90;;;15.80;49.20;;;;;;5056957;28;20270;-81
2022/12/28 01:36:07;;;;;;;7.47;4.38;;;15.90;49.10;;;;;;5055959;28;20216;-81
2022/12/28 01:38:34;;;;;;;6.95;4.88;;;15.80;49.20;;;;;;5055968;28;20195;-81
2022/12/28 01:41:02;;;;;;;6.18;4.43;;;15.80;49.20;;;;;;5055619;28;20200;-81
2022/12/28 01:43:40;;;;;;;5.63;4.38;;;15.80;49.10;;;;;;5055611;28;20203;-81
2022/12/28 01:46:08;;;;;;;5.93;4.45;;;15.80;49.30;;;;;;5055834;28;20223;-81
2022/12/28 01:48:35;;;;;;;5.95;4.82;;;15.80;49.20;;;;;;5055380;28;20210;-81
2022/12/28 01:51:04;;;;;;;6.63;4.47;;;15.80;49.20;;;;;;5039207;28;20199;-81
2022/12/28 01:53:31;;;;;;;5.82;4.30;;;15.80;49.20;;;;;;5055536;28;20224;-81
2022/12/28 01:55:59;;;;;;;4.78;4.20;;;15.80;49.30;;;;;;5055371;28;20219;-81
2022/12/28 01:58:28;;;;;;;6.55;4.35;;;15.80;49.30;;;;;;5043511;28;20196;-81
2022/12/28 02:00:55;;;;;;;6.15;4.20;;;15.80;49.30;;;;;;5060126;28;20202;-81
2022/12/28 02:03:24;;;;;;;4.97;4.40;;;15.70;49.20;;;;;;5055972;28;20195;-81
2022/12/28 02:05:54;;;;;;;5.90;4.50;;;15.70;49.20;;;;;;5055711;28;20273;-81
2022/12/28 02:08:26;;;;;;;5.68;4.45;;;15.80;49.30;;;;;;5056260;28;20287;-81
2022/12/28 02:10:53;;;;;;;6.05;4.55;;;15.80;49.50;;;;;;5059256;28;20191;-81
2022/12/28 02:13:20;;;;;;;6.30;4.40;;;15.70;49.10;;;;;;5062692;28;20230;-81
2022/12/28 02:15:47;;;;;;;5.20;4.47;;;15.70;49.40;;;;;;5059067;28;20215;-81
2022/12/28 02:18:15;;;;;;;6.28;4.63;;;15.70;49.40;;;;;;5058194;28;20249;-81
2022/12/28 02:20:49;;;;;;;5.65;4.25;;;15.70;50.00;;;;;;5058832;28;20191;-81
2022/12/28 02:23:25;;;;;;;4.70;3.58;;;15.70;49.40;;;;;;5058949;28;20191;-81
2022/12/28 02:26:02;;;;;;;5.38;3.85;;;15.70;49.30;;;;;;5058518;28;20711;-80
2022/12/28 02:29:17;;;;;;;4.38;3.90;;;15.70;49.30;;;;;;5058247;28;20203;-80
2022/12/28 02:31:49;;;;;;;4.43;3.80;;;15.70;49.50;;;;;;5058461;28;20207;-80
2022/12/28 02:34:21;;;;;;;5.00;3.88;;;15.70;49.40;;;;;;5058845;28;20207;-80
2022/12/28 02:36:52;;;;;;;4.88;4.05;;;15.70;49.40;;;;;;5058920;28;20345;-80
2022/12/28 02:39:20;;;;;;;4.15;3.65;;;15.70;49.50;;;;;;5059869;28;20207;-80
2022/12/28 02:41:48;;;;;;;4.60;3.63;;;15.70;49.70;;;;;;5059001;28;20206;-80
2022/12/28 02:50:04;;;;;;;5.93;3.90;;;15.70;49.60;;;;;;5041627;28;20546;-80
2022/12/28 02:50:08;;;;;;;5.10;3.75;;;15.70;49.70;;;;;;5055722;28;20290;-80
2022/12/28 02:53:03;;;;;;;4.68;3.35;;;15.70;49.60;;;;;;5041785;28;20278;-81
2022/12/28 02:58:55;;;;;;;4.25;3.63;;;15.70;49.60;;;;;;5054525;28;20199;-81
2022/12/28 03:01:29;;;;;;;5.63;4.00;;;15.70;49.80;;;;;;5056725;28;20206;-81
2022/12/28 03:04:03;;;;;;;4.78;3.60;;;15.70;49.90;;;;;;5057781;28;20596;-81
2022/12/28 03:09:26;;;;;;;4.00;3.30;;;15.70;49.90;;;;;;5057757;28;20222;-81
2022/12/28 03:11:54;;;;;;;4.25;3.63;;;15.60;50.00;;;;;;5057596;28;20199;-81
2022/12/28 03:14:22;;;;;;;4.78;3.83;;;15.70;50.00;;;;;;5057820;28;20204;-81
2022/12/28 03:31:04;;;;;;;3.90;3.50;;;15.70;49.90;;;;;;5056107;28;20665;-81
2022/12/28 03:33:34;;;;;;;4.10;3.55;;;15.60;50.30;;;;;;5054096;28;20195;-81
2022/12/28 03:36:07;;;;;;;4.00;3.38;;;15.70;49.70;;;;;;5054470;28;20230;-81
2022/12/28 03:38:37;;;;;;;3.85;3.45;;;15.70;49.70;;;;;;5062083;28;20226;-81
2022/12/28 03:41:07;;;;;;;4.07;3.50;;;15.70;49.60;;;;;;5040492;28;20195;-81
2022/12/28 03:43:39;;;;;;;4.50;3.63;;;15.70;49.70;;;;;;5054260;28;20217;-81
2022/12/28 03:46:09;;;;;;;3.60;3.17;;;15.70;49.70;;;;;;5055436;28;20218;-81
2022/12/28 03:48:40;;;;;;;4.20;3.47;;;15.70;49.60;;;;;;5064477;28;20195;-81
2022/12/28 03:51:08;;;;;;;3.90;3.50;;;15.70;49.60;;;;;;5064112;28;20199;-81
2022/12/28 03:53:38;;;;;;;4.97;3.63;;;15.70;49.60;;;;;;5063497;28;20199;-80
2022/12/28 03:56:09;;;;;;;6.18;4.80;;;15.60;49.50;;;;;;5060026;28;20264;-81
2022/12/28 03:58:37;;;;;;;6.43;4.60;;;15.70;49.50;;;;;;5058133;28;20603;-81
2022/12/28 04:01:04;;;;;;;5.05;4.15;;;15.70;49.60;;;;;;5041297;28;20191;-81
2022/12/28 04:03:32;;;;;;;5.15;3.90;;;15.70;49.50;;;;;;5057644;28;20199;-81
2022/12/28 04:05:59;;;;;;;4.30;3.80;;;15.70;49.50;;;;;;5057479;28;20226;-81
2022/12/28 04:08:28;;;;;;;5.03;3.80;;;15.70;49.50;;;;;;5041477;28;20196;-81
2022/12/28 04:10:58;;;;;;;3.67;3.38;;;15.70;49.50;;;;;;5043074;28;20734;-81
2022/12/28 04:13:28;;;;;;;4.78;3.40;;;15.70;49.60;;;;;;5057808;28;20658;-81
2022/12/28 04:16:01;;;;;;;4.30;3.35;;;15.70;49.60;;;;;;5058077;28;20272;-81
2022/12/28 04:18:31;;;;;;;3.50;3.20;;;15.70;50.00;;;;;;5058051;28;20199;-81
2022/12/28 04:20:58;;;;;;;5.22;3.60;;;15.70;50.30;;;;;;5057239;28;20214;-81
2022/12/28 04:23:26;;;;;;;3.40;3.10;;;15.70;50.50;;;;;;5057263;28;20629;-81
2022/12/28 04:26:11;;;;;;;3.42;3.13;;;15.70;50.50;;;;;;5057643;28;20406;-81
2022/12/28 04:28:39;;;;;;;3.90;3.20;;;15.70;50.50;;;;;;5058176;28;20203;-81
2022/12/28 04:31:21;;;;;;;3.17;2.88;;;15.70;50.50;;;;;;5056980;28;20569;-81
2022/12/28 04:34:02;;;;;;;3.83;3.08;;;15.80;50.60;;;;;;5056851;28;20211;-81
2022/12/28 04:36:32;;;;;;;3.50;3.20;;;15.80;50.50;;;;;;5056656;28;20215;-81
2022/12/28 04:39:00;;;;;;;4.15;2.83;;;15.80;50.40;;;;;;5056951;28;20187;-81
2022/12/28 04:41:28;;;;;;;3.50;3.20;;;15.80;50.90;;;;;;5057648;28;20187;-81
2022/12/28 04:43:55;;;;;;;3.50;2.90;;;15.90;50.40;;;;;;5056639;28;20207;-81
2022/12/28 04:46:23;;;;;;;3.80;3.08;;;15.90;50.30;;;;;;5056666;28;20223;-81
2022/12/28 04:48:50;;;;;;;3.40;3.10;;;15.90;50.20;;;;;;5057750;28;20200;-81
2022/12/28 04:51:18;;;;;;;3.05;2.70;;;15.90;50.20;;;;;;5056807;28;20192;-81
2022/12/28 04:53:45;;;;;;;3.50;3.10;;;16.00;50.20;;;;;;5056798;28;20200;-81
2022/12/28 04:56:12;;;;;;;3.33;3.03;;;15.90;50.00;;;;;;5056300;28;20239;-81
2022/12/28 04:58:41;;;;;;;3.42;2.70;;;16.00;50.10;;;;;;5056849;28;20257;-81
2022/12/28 05:01:09;;;;;;;3.58;2.90;;;16.00;50.00;;;;;;5056873;28;20199;-81
2022/12/28 05:03:37;;;;;;;3.58;2.70;;;16.00;50.00;;;;;;5072327;28;20230;-81
2022/12/28 05:06:06;;;;;;;3.30;3.00;;;16.00;49.90;;;;;;5074034;28;20326;-81
2022/12/28 05:08:33;;;;;;;3.10;2.80;;;16.00;49.70;;;;;;5058131;28;20209;-81
2022/12/28 05:11:00;;;;;;;3.60;3.08;;;16.00;49.70;;;;;;5056738;28;20208;-81
2022/12/28 05:13:28;;;;;;;3.30;2.78;;;16.00;49.70;;;;;;5056551;28;20570;-81
2022/12/28 05:16:00;;;;;;;3.65;2.90;;;16.00;49.50;;;;;;5056705;28;20697;-81
2022/12/28 05:18:27;;;;;;;2.70;2.50;;;16.00;49.50;;;;;;5056618;28;20203;-81
2022/12/28 05:20:59;;;;;;;2.95;2.75;;;16.10;49.50;;;;;;5056712;28;20677;-81
2022/12/28 05:23:27;;;;;;;2.75;2.47;;;16.10;49.40;;;;;;5058853;28;20207;-81
2022/12/28 05:25:55;;;;;;;3.10;2.70;;;16.10;49.30;;;;;;5055951;28;20216;-81
2022/12/28 05:28:22;;;;;;;2.88;2.63;;;16.10;49.10;;;;;;5055699;28;20571;-81
2022/12/28 05:30:49;;;;;;;3.00;2.70;;;16.10;49.30;;;;;;5055571;28;20199;-82
2022/12/28 05:33:17;;;;;;;3.25;2.85;;;16.10;49.20;;;;;;5055696;28;20248;-81
2022/12/28 05:35:44;;;;;;;2.80;2.50;;;16.10;49.20;;;;;;5056619;28;20234;-82
2022/12/28 05:38:12;;;;;;;2.92;2.63;;;16.20;49.30;;;;;;5055778;28;20549;-81
2022/12/28 05:40:39;;;;;;;2.97;2.60;;;16.20;49.80;;;;;;5055899;28;20286;-81
2022/12/28 05:43:06;;;;;;;2.67;2.47;;;16.20;49.30;;;;;;5039707;28;20607;-81
2022/12/28 05:45:34;;;;;;;3.15;2.78;;;16.20;49.00;;;;;;5055556;28;20226;-81
2022/12/28 05:48:00;;;;;;;3.55;2.90;;;16.20;49.00;;;;;;5055753;28;20206;-81
2022/12/28 05:50:29;;;;;;;2.60;2.40;;;16.30;49.10;;;;;;5056491;28;20738;-81
2022/12/28 05:52:58;;;;;;;2.97;2.50;;;16.30;49.10;;;;;;5039973;28;20249;-81
2022/12/28 05:55:26;;;;;;;2.47;2.28;;;16.20;49.00;;;;;;5040821;28;20227;-80
2022/12/28 05:57:54;;;;;;;2.85;2.55;;;16.30;49.10;;;;;;5056399;28;20200;-79
2022/12/28 06:00:21;;;;;;;2.53;2.33;;;16.30;49.10;;;;;;5056238;28;20191;-79
2022/12/28 06:02:49;;;;;;;2.67;2.47;;;16.30;49.10;;;;;;5056598;28;20291;-79
2022/12/28 06:05:16;;;;;;;2.80;2.40;;;16.30;48.90;;;;;;5056265;28;20211;-81
2022/12/28 06:07:44;;;;;;;3.33;2.55;;;16.30;49.20;;;;;;5054871;28;20203;-80
2022/12/28 06:10:12;;;;;;;2.97;2.40;;;16.30;49.00;;;;;;5054999;28;20206;-79
2022/12/28 06:12:39;;;;;;;2.72;2.45;;;16.40;49.10;;;;;;5055804;28;20646;-79
2022/12/28 06:15:07;;;;;;;2.85;2.50;;;16.40;48.60;;;;;;5056207;28;20215;-79
2022/12/28 06:17:34;;;;;;;2.38;2.17;;;16.40;48.70;;;;;;5055532;28;20571;-80
2022/12/28 06:20:01;;;;;;;2.47;2.28;;;16.40;48.80;;;;;;5055050;28;20260;-80
2022/12/28 06:22:28;;;;;;;2.40;2.20;;;16.50;48.80;;;;;;5055245;28;20199;-79
2022/12/28 06:24:57;;;;;;;3.35;2.42;;;16.50;48.90;;;;;;5055585;28;20195;-79
2022/12/28 06:27:24;;;;;;;2.97;2.50;;;16.50;49.20;;;;;;5055167;28;20203;-79
2022/12/28 06:29:51;;;;;;;3.10;2.33;;;16.50;48.90;;;;;;5055374;28;20223;-79
2022/12/28 06:32:18;;;;;;;2.55;2.20;;;16.50;49.10;;;;;;5054925;28;20253;-79
2022/12/28 06:34:45;;;;;;;3.63;2.10;;;16.50;48.90;;;;;;5054966;28;20215;-79
2022/12/28 06:37:13;;;;;;;2.63;2.30;;;16.50;48.90;;;;;;5055109;28;20265;-79
2022/12/28 06:39:41;;;;;;;2.38;2.17;;;16.50;49.10;;;;;;5056234;28;20192;-79
2022/12/28 06:42:10;;;;;;;2.90;2.20;;;16.60;49.10;;;;;;5054407;28;20257;-79
2022/12/28 06:44:37;;;;;;;2.30;2.10;;;16.50;49.00;;;;;;5054579;28;20200;-79
2022/12/28 06:47:04;;;;;;;2.20;2.00;;;16.60;49.00;;;;;;5055041;28;20224;-79
2022/12/28 06:49:32;;;;;;;2.88;2.10;;;16.60;49.10;;;;;;5055372;28;20222;-79
2022/12/28 06:51:59;;;;;;;3.20;2.20;;;16.60;48.90;;;;;;5057026;28;20238;-79
2022/12/28 06:54:26;;;;;;;2.10;1.90;;;16.60;49.00;;;;;;5055661;28;20302;-80
2022/12/28 06:56:52;;;;;;;2.30;2.10;;;16.60;49.30;;;;;;5054376;28;20222;-80
2022/12/28 06:59:21;;;;;;;2.10;2.00;;;16.60;49.40;;;;;;5054284;28;20219;-81
2022/12/28 07:01:48;;;;;;;2.33;2.08;;;16.60;49.40;;;;;;5057089;28;20222;-80
2022/12/28 07:04:15;;;;;;;2.50;2.05;;;16.70;49.30;;;;;;5060442;28;20253;-80
2022/12/28 07:06:43;;;;;;;2.38;2.08;;;16.70;49.30;;;;;;5059463;28;20211;-80
2022/12/28 07:09:12;;;;;;;2.63;2.15;;;16.70;49.10;;;;;;5059085;28;20204;-80
2022/12/28 07:11:39;;;;;;;2.20;2.00;;;16.70;49.00;;;;;;5058989;28;20199;-81
2022/12/28 07:14:06;;;;;;;2.38;1.90;;;16.70;49.00;;;;;;5057488;28;20197;-81
2022/12/28 07:16:35;;;;;;;2.15;1.90;;;16.80;48.90;;;;;;5057550;28;20325;-80
2022/12/28 07:19:02;;;;;;;2.20;2.00;;;16.70;48.90;;;;;;5056984;28;20286;-82
2022/12/28 07:21:30;;;;;;;3.20;2.15;;;16.80;48.80;;;;;;5040817;28;20207;-78
2022/12/28 07:23:57;;;;;;;2.22;2.00;;;16.80;48.90;;;;;;5056125;28;20195;-79
2022/12/28 07:26:26;;;;;;;2.35;1.90;;;16.70;48.70;;;;;;5054268;28;20225;-80
2022/12/28 07:28:54;;;;;;;2.40;2.20;;;16.80;48.60;;;;;;5053254;28;20192;-80
2022/12/28 07:31:22;;;;;;;2.53;2.00;;;16.80;49.20;;;;;;5053109;28;20211;-80
2022/12/28 07:33:50;;;;;;;2.20;2.00;;;16.80;48.60;;;;;;5053743;28;20195;-80
2022/12/28 07:36:19;;;;;;;2.10;1.90;;;16.70;48.40;;;;;;5053904;28;20223;-79
2022/12/28 07:38:46;;;;;;;1.92;1.80;;;16.80;48.60;;;;;;5053733;28;20249;-79
2022/12/28 07:41:15;;;;;;;2.10;1.90;;;16.70;48.30;;;;;;5054266;28;20253;-79
2022/12/28 07:43:42;;;;;;;2.22;1.88;;;16.80;48.40;;;;;;5054829;28;20214;-79
2022/12/28 07:46:10;;;;;;;2.35;2.03;;;16.80;48.40;;;;;;5053527;28;20223;-79
2022/12/28 07:48:37;;;;;;;2.72;2.53;;;16.80;48.30;;;;;;5055347;28;20196;-79
2022/12/28 07:51:12;;;;;;;2.42;2.20;;;16.80;48.30;;;;;;5053997;28;20570;-79
2022/12/28 07:53:39;;;;;;;2.45;2.10;;;16.90;48.40;;;;;;5053994;28;20278;-80
2022/12/28 07:56:07;;;;;;;2.47;2.03;;;17.00;48.10;;;;;;5053462;28;20231;-80
2022/12/28 07:58:34;;;;;;;2.10;1.90;;;17.00;47.90;;;;;;5054181;28;20206;-80
2022/12/28 08:01:06;;;;;;;3.22;2.13;;;17.00;47.80;;;;;;5053781;28;20199;-79
2022/12/28 08:03:33;;;;;;;2.35;2.00;;;17.00;47.80;;;;;;5054082;28;20206;-79
2022/12/28 08:06:08;;;;;;;2.03;1.92;;;17.10;47.90;;;;;;5053425;28;20369;-79
2022/12/28 08:08:37;;;;;;;2.10;1.90;;;17.10;47.80;;;;;;5053379;28;20198;-79
2022/12/28 08:11:05;;;;;;;2.30;2.08;;;17.10;47.60;;;;;;5054008;28;20210;-79
2022/12/28 08:13:33;;;;;;;2.22;2.10;;;17.20;47.50;;;;;;5053448;28;20225;-79
2022/12/28 08:16:01;;;;;;;2.40;2.13;;;17.30;47.40;;;;;;5052933;28;20247;-79
2022/12/28 08:18:28;;;;;;;2.38;2.08;;;17.30;47.40;;;;;;5053404;28;20222;-79
2022/12/28 08:20:59;;;;;;;2.42;2.10;;;17.40;47.20;;;;;;5053429;28;20218;-79
2022/12/28 08:23:26;;;;;;;2.38;2.00;;;17.40;47.30;;;;;;5052796;28;20545;-79
2022/12/28 08:25:54;;;;;;;2.20;2.00;;;17.40;47.20;;;;;;5053089;28;20621;-79
2022/12/28 08:28:21;;;;;;;3.67;2.13;;;17.40;46.90;;;;;;5053179;28;20199;-79
2022/12/28 08:30:48;;;;;;;2.53;2.17;;;17.40;47.10;;;;;;5053444;28;20245;-79
2022/12/28 08:33:15;;;;;;;2.30;2.10;;;17.40;47.10;;;;;;5055878;28;20561;-79
2022/12/28 08:35:43;;;;;;;2.42;2.00;;;17.50;47.10;;;;;;5056111;28;20220;-79
2022/12/28 08:38:10;;;;;;;2.95;2.38;;;17.50;47.00;;;;;;5056564;28;20205;-79
2022/12/28 08:40:37;;;;;;;3.45;2.28;;;17.60;46.80;;;;;;5057077;28;20214;-79
2022/12/28 08:43:05;;;;;;;2.88;2.58;;;17.50;46.90;;;;;;5056277;28;20199;-79
2022/12/28 08:45:32;;;;;;;2.47;2.28;;;17.60;47.00;;;;;;5056128;28;20215;-79
2022/12/28 08:48:00;;;;;;;2.60;2.40;;;17.60;46.90;;;;;;5056822;28;20195;-79
2022/12/28 08:50:27;;;;;;;2.58;2.30;;;17.60;46.70;;;;;;5056984;28;20199;-79
2022/12/28 08:52:54;;;;;;;2.50;2.30;;;17.60;46.70;;;;;;5056411;28;20664;-78
2022/12/28 08:55:21;;;;;;;2.47;2.25;;;17.60;46.80;;;;;;5056522;28;20219;-78
2022/12/28 08:57:49;;;;;;;2.60;2.15;;;17.70;46.70;;;;;;5056636;28;20727;-78
2022/12/28 09:00:18;;;;;;;2.38;2.13;;;17.70;46.90;;;;;;5057377;28;20191;-78
2022/12/28 09:02:45;;;;;;;2.28;2.08;;;17.70;46.90;;;;;;5056600;28;20253;-78
2022/12/28 09:05:13;;;;;;;4.03;2.10;;;17.70;46.80;;;;;;5040101;28;20220;-78
2022/12/28 09:07:40;;;;;;;2.42;1.98;;;17.70;46.70;;;;;;5056212;28;20204;-78
2022/12/28 09:10:08;;;;;;;3.22;2.08;;;17.80;46.60;;;;;;5056582;28;20191;-78
2022/12/28 09:12:37;;;;;;;2.10;2.00;;;17.80;46.60;;;;;;5056682;28;20199;-78
2022/12/28 09:15:04;;;;;;;2.70;2.10;;;17.80;46.70;;;;;;5055858;28;20203;-78
2022/12/28 09:17:33;;;;;;;2.60;2.10;;;17.80;46.50;;;;;;5056149;28;20215;-80
2022/12/28 09:20:00;;;;;;;2.10;1.92;;;17.90;46.80;;;;;;5056354;28;20676;-80
2022/12/28 09:22:27;;;;;;;3.00;2.28;;;17.90;46.50;;;;;;5056490;28;20670;-80
2022/12/28 09:24:55;;;;;;;2.95;2.00;;;17.90;46.60;;;;;;5056332;28;20203;-80
2022/12/28 09:27:24;;;;;;;2.33;1.70;;;17.90;46.50;;;;;;5056823;28;20282;-80
2022/12/28 09:29:51;;;;;;;2.45;2.17;;;18.00;46.60;;;;;;5057201;28;20204;-80
2022/12/28 09:32:19;;;;;;;1.92;1.80;;;18.00;46.50;;;;;;5058606;28;20621;-80
2022/12/28 09:34:48;;;;;;;2.47;2.10;;;18.00;46.50;;;;;;5058691;28;20599;-80
2022/12/28 09:37:15;;;;;;;1.90;1.80;;;18.00;46.30;;;;;;5055803;28;20238;-80
2022/12/28 09:39:42;;;;;;;1.98;1.80;;;18.10;46.30;;;;;;5055888;28;20207;-80
2022/12/28 09:42:12;;;;;;;2.47;2.15;;;18.10;46.40;;;;;;5056085;28;20199;-80
2022/12/28 09:44:54;;;;;;;2.30;1.85;;;18.10;46.30;;;;;;5056314;28;20199;-80
2022/12/28 09:47:31;;;;;;;2.40;2.20;;;18.10;46.30;;;;;;5056613;28;20195;-79
2022/12/28 09:50:28;;;;;;;2.10;1.92;;;18.20;46.40;;;;;;5057654;28;20186;-79
2022/12/28 09:53:35;;;;;;;2.50;2.20;;;18.20;46.20;;;;;;5049536;28;20293;-79
2022/12/28 09:56:06;;;;;;;2.20;2.00;;;18.20;46.10;;;;;;5056368;28;20245;-79
2022/12/28 09:58:37;;;;;;;2.22;1.95;;;18.30;46.10;;;;;;5056265;28;20194;-79
2022/12/28 10:01:05;;;;;;;2.85;2.15;;;18.30;46.10;;;;;;5040062;28;20206;-79
2022/12/28 10:03:35;;;;;;;1.83;1.73;;;18.30;46.00;;;;;;5055323;28;20246;-79
2022/12/28 10:06:03;;;;;;;2.30;1.92;;;18.30;46.00;;;;;;5055335;28;20739;-79
2022/12/28 10:08:30;;;;;;;2.20;2.00;;;18.30;45.90;;;;;;5055235;28;20234;-79
2022/12/28 10:11:00;;;;;;;2.50;2.00;;;18.40;46.10;;;;;;5054824;28;20195;-79
2022/12/28 10:13:30;;;;;;;1.90;1.75;;;18.40;45.90;;;;;;5064034;28;20183;-79
2022/12/28 10:15:58;;;;;;;2.05;1.85;;;18.40;46.00;;;;;;5063798;28;20226;-79
2022/12/28 10:18:26;;;;;;;2.28;1.73;;;18.50;45.90;;;;;;5062305;28;20223;-79
2022/12/28 10:20:54;;;;;;;2.28;2.08;;;18.50;46.00;;;;;;5055237;28;20199;-79
2022/12/28 10:23:24;;;;;;;1.70;1.60;;;18.50;45.80;;;;;;5055630;28;20187;-79
2022/12/28 10:25:52;;;;;;;2.22;2.03;;;18.50;45.80;;;;;;5038591;28;20212;-79
2022/12/28 10:28:21;;;;;;;2.03;1.92;;;18.50;45.60;;;;;;5055950;28;20665;-79
2022/12/28 10:30:49;;;;;;;1.95;1.77;;;18.50;45.80;;;;;;5039027;28;20207;-79
2022/12/28 10:33:17;;;;;;;1.75;1.60;;;18.50;45.70;;;;;;5055001;28;20198;-79
2022/12/28 10:35:50;;;;;;;1.90;1.63;;;18.60;45.90;;;;;;5038470;28;20225;-79
2022/12/28 10:38:23;;;;;;;1.67;1.58;;;18.60;45.70;;;;;;5055076;28;20278;-79
2022/12/28 10:40:58;;;;;;;1.90;1.80;;;18.60;45.70;;;;;;5055879;28;20274;-79
2022/12/28 10:43:27;;;;;;;2.10;1.95;;;18.60;45.60;;;;;;5055880;28;20283;-79
2022/12/28 10:45:55;;;;;;;3.15;1.70;;;18.70;45.80;;;;;;5059394;28;20265;-79
2022/12/28 10:48:24;;;;;;;2.65;2.00;;;18.70;45.70;;;;;;5055314;28;20203;-79
2022/12/28 10:50:52;;;;;;;2.20;1.88;;;18.70;45.70;;;;;;5054989;28;20199;-79
2022/12/28 10:53:25;;;;;;;1.83;1.73;;;18.70;45.70;;;;;;5054799;28;20202;-79
2022/12/28 10:56:01;;;;;;;2.10;1.90;;;18.80;45.60;;;;;;5053904;28;20302;-79
2022/12/28 10:58:28;;;;;;;1.98;1.80;;;18.80;45.40;;;;;;5055961;28;20196;-79
2022/12/28 11:00:56;;;;;;;2.88;1.80;;;18.80;45.50;;;;;;5054955;28;20255;-79
2022/12/28 11:03:28;;;;;;;2.13;1.95;;;18.80;45.40;;;;;;5055995;28;20191;-79
2022/12/28 11:06:09;;;;;;;1.90;1.80;;;18.80;45.50;;;;;;5038034;28;20211;-79
2022/12/28 11:08:41;;;;;;;1.98;1.77;;;18.80;45.30;;;;;;5056193;28;20233;-79
2022/12/28 11:11:17;;;;;;;2.38;2.10;;;18.80;45.30;;;;;;5056769;28;20257;-79
2022/12/28 11:13:44;;;;;;;2.20;2.00;;;18.80;45.30;;;;;;5056015;28;20191;-79
2022/12/28 11:16:13;;;;;;;1.90;1.80;;;18.80;45.30;;;;;;5054785;28;20230;-79
2022/12/28 11:18:40;;;;;;;1.80;1.70;;;18.80;45.40;;;;;;5055250;28;20293;-79
2022/12/28 11:21:10;;;;;;;2.00;1.80;;;18.80;45.30;;;;;;5054743;28;20662;-79
2022/12/28 11:23:38;;;;;;;1.95;1.75;;;18.80;45.50;;;;;;5054613;28;20500;-79
2022/12/28 11:26:08;;;;;;;1.95;1.85;;;18.90;45.50;;;;;;5061636;28;20246;-79
2022/12/28 11:28:35;;;;;;;1.90;1.80;;;18.90;45.30;;;;;;5062085;28;20202;-79
2022/12/28 11:31:02;;;;;;;1.95;1.50;;;18.90;45.20;;;;;;5060973;28;20207;-79
2022/12/28 11:33:33;;;;;;;2.30;1.80;;;18.90;45.20;;;;;;5062844;28;20190;-79
2022/12/28 11:36:00;;;;;;;2.03;1.83;;;18.90;45.30;;;;;;5061298;28;20226;-79
2022/12/28 11:38:38;;;;;;;2.00;1.70;;;18.90;45.30;;;;;;5059978;28;20210;-79
2022/12/28 11:41:06;;;;;;;1.60;1.50;;;18.90;45.30;;;;;;5058671;28;20620;-79
2022/12/28 11:43:52;;;;;;;1.80;1.65;;;19.00;45.50;;;;;;5058438;28;20270;-79
2022/12/28 11:46:42;;;;;;;1.95;1.83;;;18.90;45.20;;;;;;5057943;28;20310;-79
2022/12/28 11:49:27;;;;;;;1.80;1.70;;;18.90;45.30;;;;;;5059050;28;20195;-79
2022/12/28 11:52:43;;;;;;;2.13;1.55;;;19.00;45.40;;;;;;5057407;28;20206;-79
2022/12/28 11:55:36;;;;;;;1.88;1.70;;;19.00;45.30;;;;;;5040013;28;20237;-79
2022/12/28 11:58:33;;;;;;;1.95;1.73;;;18.90;45.10;;;;;;5053986;28;20211;-79
2022/12/28 12:01:02;;;;;;;2.03;1.90;;;19.00;45.10;;;;;;5053683;28;20195;-79
2022/12/28 12:04:02;;;;;;;1.85;1.73;;;19.00;45.00;;;;;;5053708;28;20206;-79
2022/12/28 12:07:03;;;;;;;1.92;1.73;;;19.00;45.10;;;;;;5054236;28;20226;-79
2022/12/28 12:09:42;;;;;;;2.17;1.95;;;19.00;45.10;;;;;;5059143;28;20214;-79
2022/12/28 12:12:36;;;;;;;1.85;1.73;;;19.00;45.10;;;;;;5063437;28;20237;-79
2022/12/28 12:15:09;;;;;;;2.03;1.90;;;19.00;45.30;;;;;;5062989;28;20211;-80
2022/12/28 12:17:40;;;;;;;2.00;1.80;;;19.00;45.10;;;;;;5062357;28;20212;-80
2022/12/28 12:20:18;;;;;;;1.60;1.50;;;19.00;45.50;;;;;;5059942;28;20205;-80
2022/12/28 12:22:48;;;;;;;1.60;1.50;;;19.00;45.50;;;;;;5060010;28;20246;-80
2022/12/28 12:25:18;;;;;;;2.00;1.40;;;19.00;45.40;;;;;;5060920;28;20283;-81
2022/12/28 12:27:47;;;;;;;1.60;1.50;;;19.00;45.30;;;;;;5061120;28;20187;-81
2022/12/28 12:30:16;;;;;;;1.40;1.30;;;19.00;45.10;;;;;;5043906;28;20735;-81
2022/12/28 12:32:44;;;;;;;1.60;1.50;;;18.90;45.30;;;;;;5060834;28;20245;-81
2022/12/28 12:35:13;;;;;;;1.63;1.52;;;19.00;45.50;;;;;;5043104;28;20236;-81
2022/12/28 12:37:46;;;;;;;1.58;1.30;;;19.00;45.30;;;;;;5059861;28;20219;-81
2022/12/28 12:40:46;;;;;;;1.42;1.33;;;19.00;45.10;;;;;;5041260;28;20257;-80
2022/12/28 12:43:25;;;;;;;1.50;1.40;;;19.00;45.10;;;;;;5056252;28;20215;-78
2022/12/28 12:45:55;;;;;;;1.50;1.40;;;19.00;45.30;;;;;;5056302;28;20276;-78
2022/12/28 12:48:31;;;;;;;1.50;1.40;;;19.00;45.10;;;;;;5055750;28;20196;-78
2022/12/28 12:51:04;;;;;;;1.45;1.35;;;19.00;45.10;;;;;;5055935;28;20199;-78
2022/12/28 12:53:46;;;;;;;1.50;1.40;;;19.00;45.50;;;;;;5058650;28;20203;-79
2022/12/28 12:56:18;;;;;;;1.60;1.50;;;19.00;45.30;;;;;;5060047;28;20707;-80
2022/12/28 12:58:51;;;;;;;1.40;1.30;;;18.90;45.50;;;;;;5056749;28;20190;-80
2022/12/28 13:01:29;;;;;;;1.50;1.40;;;19.00;46.20;;;;;;5056426;28;20662;-80
2022/12/28 13:03:58;;;;;;;1.73;1.50;;;19.00;45.40;;;;;;5056871;28;20196;-80
2022/12/28 13:06:26;;;;;;;2.15;1.50;;;18.90;45.40;;;;;;5056221;28;20257;-80
2022/12/28 13:08:55;;;;;;;1.45;1.35;;;18.90;45.20;;;;;;5040082;28;20199;-80
2022/12/28 13:11:21;;;;;;;1.40;1.30;;;19.00;45.40;;;;;;5056593;28;20573;-81
2022/12/28 13:13:53;;;;;;;1.50;1.40;;;18.90;45.40;;;;;;5056098;28;20713;-81
2022/12/28 13:16:20;;;;;;;1.35;1.25;;;19.00;45.50;;;;;;5056263;28;20219;-81
2022/12/28 13:18:55;;;;;;;1.42;1.33;;;19.00;45.50;;;;;;5072221;28;20261;-81
2022/12/28 13:21:23;;;;;;;1.60;1.50;;;19.00;45.30;;;;;;5055721;28;20203;-81
2022/12/28 13:23:51;;;;;;;1.60;1.50;;;18.90;45.30;;;;;;5055642;28;20227;-81
2022/12/28 13:26:22;;;;;;;1.48;1.38;;;19.00;45.30;;;;;;5056419;28;20220;-81
2022/12/28 13:28:53;;;;;;;1.67;1.40;;;19.00;45.30;;;;;;5060948;28;20650;-80